createdAt,value
2023-02-11T00:01:41.364Z,52.55
2023-02-11T00:04:12.367Z,49.63
2023-02-11T00:06:41.227Z,55.40
2023-02-11T00:09:09.795Z,48.53
2023-02-11T00:11:38.106Z,49.27
2023-02-11T00:14:08.975Z,48.10
2023-02-11T00:16:37.952Z,53.03
2023-02-11T00:19:06.750Z,51.80
2023-02-11T00:21:35.895Z,51.22
2023-02-11T00:24:04.373Z,48.63
2023-02-11T00:26:39.201Z,46.33
2023-02-11T00:29:09.128Z,48.70
2023-02-11T00:31:38.159Z,51.03
2023-02-11T00:34:06.426Z,55.25
2023-02-11T00:36:34.878Z,51.03
2023-02-11T00:39:03.307Z,52.50
2023-02-11T00:41:31.833Z,50.95
2023-02-11T00:44:00.411Z,49.97
2023-02-11T00:46:32.863Z,56.95
2023-02-11T00:49:01.242Z,52.95
2023-02-11T00:51:30.200Z,56.63
2023-02-11T00:53:58.842Z,55.63
2023-02-11T00:56:27.388Z,51.47
2023-02-11T00:58:55.636Z,53.17
2023-02-11T01:01:23.947Z,53.72
2023-02-11T01:03:54.611Z,56.10
2023-02-11T01:06:23.242Z,50.58
2023-02-11T01:08:51.527Z,55.20
2023-02-11T01:11:22.030Z,56.28
2023-02-11T01:13:51.331Z,55.13
2023-02-11T01:16:21.767Z,59.35
2023-02-11T01:18:51.028Z,57.50
2023-02-11T01:21:20.922Z,59.15
2023-02-11T01:23:50.945Z,52.77
2023-02-11T01:26:19.574Z,57.08
2023-02-11T01:28:47.993Z,54.67
2023-02-11T01:31:17.303Z,57.47
2023-02-11T01:33:45.584Z,56.40
2023-02-11T01:36:14.515Z,55.03
2023-02-11T01:38:44.669Z,65.90
2023-02-11T01:41:15.175Z,57.67
2023-02-11T01:43:46.554Z,63.28
2023-02-11T01:46:31.509Z,64.82
2023-02-11T01:49:05.007Z,62.63
2023-02-11T01:51:38.532Z,70.05
2023-02-11T01:54:28.249Z,60.33
2023-02-11T01:57:17.196Z,64.22
2023-02-11T01:59:53.546Z,70.17
2023-02-11T02:02:26.780Z,65.90
2023-02-11T02:05:00.762Z,67.35
2023-02-11T02:07:37.278Z,65.05
2023-02-11T02:10:13.044Z,67.47
2023-02-11T02:12:41.892Z,66.10
2023-02-11T02:15:24.511Z,68.60
2023-02-11T02:18:09.640Z,64.60
2023-02-11T02:21:11.731Z,63.47
2023-02-11T02:24:10.695Z,71.20
2023-02-11T02:27:28.069Z,67.63
2023-02-11T02:30:32.515Z,69.72
2023-02-11T02:33:23.595Z,65.60
2023-02-11T02:36:06.675Z,70.73
2023-02-11T02:38:42.092Z,68.97
2023-02-11T02:41:14.319Z,81.37
2023-02-11T02:43:46.705Z,71.80
2023-02-11T02:46:17.515Z,72.72
2023-02-11T02:48:49.496Z,67.17
2023-02-11T02:51:45.531Z,72.10
2023-02-11T02:54:36.943Z,73.68
2023-02-11T02:57:21.361Z,72.60
2023-02-11T03:00:05.633Z,67.50
2023-02-11T03:02:40.003Z,73.87
2023-02-11T03:05:18.536Z,73.80
2023-02-11T03:07:53.457Z,70.15
2023-02-11T03:10:27.939Z,66.30
2023-02-11T03:12:58.059Z,76.53
2023-02-11T03:15:29.182Z,74.00
2023-02-11T03:18:01.803Z,71.63
2023-02-11T03:20:37.044Z,75.40
2023-02-11T03:23:12.600Z,81.93
2023-02-11T03:25:47.136Z,75.00
2023-02-11T03:28:21.465Z,77.78
2023-02-11T03:30:55.705Z,75.88
2023-02-11T03:33:28.722Z,74.07
2023-02-11T03:36:03.576Z,78.28
2023-02-11T03:38:35.906Z,75.47
2023-02-11T03:41:10.703Z,81.40
2023-02-11T03:43:45.633Z,70.78
2023-02-11T03:46:17.891Z,78.88
2023-02-11T03:48:52.610Z,79.57
2023-02-11T03:51:24.584Z,74.18
2023-02-11T03:53:57.985Z,72.22
2023-02-11T03:56:30.619Z,78.43
2023-02-11T03:58:59.274Z,75.40
2023-02-11T04:01:27.543Z,73.32
2023-02-11T04:03:56.097Z,75.75
2023-02-11T04:06:35.344Z,77.68
2023-02-11T04:09:06.652Z,73.72
2023-02-11T04:11:34.843Z,75.57
2023-02-11T04:14:03.207Z,74.17
2023-02-11T04:16:31.961Z,70.80
2023-02-11T04:19:01.570Z,79.20
2023-02-11T04:21:29.956Z,69.95
2023-02-11T04:23:59.520Z,71.63
2023-02-11T04:26:28.505Z,79.43
2023-02-11T04:28:57.322Z,71.97
2023-02-11T04:31:26.044Z,71.63
2023-02-11T04:33:54.326Z,69.70
2023-02-11T04:36:23.218Z,75.13
2023-02-11T04:38:51.353Z,75.65
2023-02-11T04:41:21.627Z,71.27
2023-02-11T04:43:50.492Z,70.73
2023-02-11T04:46:18.768Z,74.45
2023-02-11T04:48:50.713Z,67.17
2023-02-11T04:51:19.163Z,74.73
2023-02-11T04:53:47.378Z,64.55
2023-02-11T04:56:18.727Z,73.07
2023-02-11T04:58:48.408Z,63.30
2023-02-11T05:01:17.889Z,76.77
2023-02-11T05:03:46.868Z,66.90
2023-02-11T05:06:15.831Z,73.25
2023-02-11T05:08:44.529Z,66.15
2023-02-11T05:11:18.258Z,68.27
2023-02-11T05:13:48.569Z,60.28
2023-02-11T05:16:17.555Z,68.22
2023-02-11T05:18:46.521Z,72.57
2023-02-11T05:21:17.004Z,76.47
2023-02-11T05:23:50.160Z,63.53
2023-02-11T05:26:19.789Z,64.63
2023-02-11T05:28:49.393Z,69.63
2023-02-11T05:31:18.556Z,75.63
2023-02-11T05:33:49.757Z,71.22
2023-02-11T05:36:18.025Z,75.50
2023-02-11T05:38:46.702Z,73.68
2023-02-11T05:41:14.897Z,77.67
2023-02-11T05:43:43.484Z,74.00
2023-02-11T05:46:13.019Z,79.57
2023-02-11T05:48:41.243Z,73.38
2023-02-11T05:51:10.661Z,70.95
2023-02-11T05:53:38.998Z,77.68
2023-02-11T05:56:08.127Z,80.07
2023-02-11T05:58:36.373Z,81.13
2023-02-11T06:01:04.933Z,73.90
2023-02-11T06:03:36.227Z,77.70
2023-02-11T06:06:05.381Z,77.00
2023-02-11T06:08:33.996Z,83.53
2023-02-11T06:11:02.233Z,84.93
2023-02-11T06:13:30.625Z,76.93
2023-02-11T06:16:03.535Z,86.00
2023-02-11T06:18:33.656Z,85.82
2023-02-11T06:21:08.257Z,81.68
2023-02-11T06:23:36.556Z,79.00
2023-02-11T06:26:08.841Z,85.50
2023-02-11T06:28:43.463Z,79.25
2023-02-11T06:31:11.864Z,77.95
2023-02-11T06:33:40.633Z,74.53
2023-02-11T06:36:17.020Z,86.30
2023-02-11T06:38:45.837Z,82.20
2023-02-11T06:41:15.774Z,76.90
2023-02-11T06:43:45.237Z,75.75
2023-02-11T06:46:13.523Z,68.68
2023-02-11T06:48:43.789Z,74.10
2023-02-11T06:51:15.454Z,69.80
2023-02-11T06:53:47.191Z,75.88
2023-02-11T06:56:17.887Z,67.40
2023-02-11T06:58:46.332Z,71.05
2023-02-11T07:01:16.659Z,63.78
2023-02-11T07:03:46.013Z,69.60
2023-02-11T07:06:19.192Z,70.90
2023-02-11T07:08:49.473Z,67.07
2023-02-11T07:11:24.318Z,77.03
2023-02-11T07:13:53.779Z,68.45
2023-02-11T07:16:22.656Z,65.97
2023-02-11T07:18:51.433Z,68.38
2023-02-11T07:21:22.654Z,68.07
2023-02-11T07:23:51.486Z,66.80
2023-02-11T07:26:22.955Z,68.10
2023-02-11T07:28:51.667Z,64.32
2023-02-11T07:31:23.647Z,68.35
2023-02-11T07:33:53.427Z,66.85
2023-02-11T07:36:23.619Z,73.18
2023-02-11T07:38:52.005Z,70.05
2023-02-11T07:41:22.570Z,64.57
2023-02-11T07:43:51.631Z,81.25
2023-02-11T07:46:22.645Z,69.00
2023-02-11T07:48:51.604Z,66.80
2023-02-11T07:51:23.597Z,73.10
2023-02-11T07:53:53.601Z,69.35
2023-02-11T07:56:23.653Z,66.63
2023-02-11T07:58:52.697Z,70.85
2023-02-11T08:01:25.300Z,67.18
2023-02-11T08:03:54.041Z,60.25
2023-02-11T08:06:25.259Z,68.20
2023-02-11T08:08:54.108Z,67.15
2023-02-11T08:11:24.732Z,73.22
2023-02-11T08:13:53.618Z,80.03
2023-02-11T08:16:24.203Z,69.60
2023-02-11T08:18:53.727Z,70.90
2023-02-11T08:21:24.448Z,68.40
2023-02-11T08:23:53.635Z,67.13
2023-02-11T08:26:24.338Z,63.60
2023-02-11T08:28:55.073Z,61.10
2023-02-11T08:31:25.730Z,69.68
2023-02-11T08:33:58.155Z,66.15
2023-02-11T08:36:29.590Z,61.67
2023-02-11T08:39:15.928Z,69.72
2023-02-11T08:41:46.419Z,58.90
2023-02-11T08:44:15.016Z,67.97
2023-02-11T08:46:43.290Z,64.30
2023-02-11T08:49:12.606Z,65.18
2023-02-11T08:51:42.614Z,72.10
2023-02-11T08:54:11.454Z,61.83
2023-02-11T08:56:40.694Z,66.80
2023-02-11T08:59:10.220Z,69.80
2023-02-11T09:01:38.386Z,63.80
2023-02-11T09:04:08.317Z,68.90
2023-02-11T09:06:36.453Z,67.00
2023-02-11T09:09:06.706Z,63.57
2023-02-11T09:11:37.983Z,67.40
2023-02-11T09:14:06.466Z,66.25
2023-02-11T09:16:37.273Z,70.68
2023-02-11T09:19:06.765Z,68.00
2023-02-11T09:21:35.856Z,68.55
2023-02-11T09:24:07.317Z,67.35
2023-02-11T09:26:37.254Z,66.88
2023-02-11T09:29:07.108Z,60.72
2023-02-11T09:31:37.205Z,59.60
2023-02-11T09:34:07.175Z,63.15
2023-02-11T09:36:40.805Z,55.42
2023-02-11T09:39:13.452Z,58.40
2023-02-11T09:42:09.592Z,53.70
2023-02-11T09:44:39.280Z,60.33
2023-02-11T09:47:20.779Z,62.70
2023-02-11T09:49:52.547Z,58.33
2023-02-11T09:52:31.846Z,58.42
2023-02-11T09:55:03.935Z,51.20
2023-02-11T09:57:35.159Z,53.13
2023-02-11T10:00:13.460Z,52.60
2023-02-11T10:02:54.898Z,50.20
2023-02-11T10:05:38.624Z,50.97
2023-02-11T10:08:15.834Z,49.38
2023-02-11T10:10:53.827Z,45.53
2023-02-11T10:13:34.465Z,44.67
2023-02-11T10:16:14.769Z,51.13
2023-02-11T10:18:55.210Z,48.60
2023-02-11T10:21:33.773Z,44.95
2023-02-11T10:24:05.785Z,48.00
2023-02-11T10:26:38.249Z,42.92
2023-02-11T10:29:19.724Z,50.78
2023-02-11T10:31:48.884Z,47.45
2023-02-11T10:34:17.631Z,51.03
2023-02-11T10:36:49.072Z,48.58
2023-02-11T10:39:21.109Z,49.63
2023-02-11T10:41:54.767Z,48.78
2023-02-11T10:44:28.855Z,48.72
2023-02-11T10:47:01.751Z,45.80
2023-02-11T10:49:40.907Z,48.50
2023-02-11T10:52:22.837Z,46.22
2023-02-11T10:55:17.494Z,50.10
2023-02-11T10:57:55.401Z,50.38
2023-02-11T11:00:38.786Z,46.13
2023-02-11T11:03:16.385Z,44.05
2023-02-11T11:05:50.039Z,51.67
2023-02-11T11:08:19.494Z,49.45
2023-02-11T11:10:49.708Z,43.92
2023-02-11T11:13:31.007Z,46.10
2023-02-11T11:16:10.085Z,43.53
2023-02-11T11:18:38.385Z,45.60
2023-02-11T11:21:08.580Z,50.42
2023-02-11T11:23:38.304Z,46.97
2023-02-11T11:26:09.583Z,41.22
2023-02-11T11:28:51.734Z,45.60
2023-02-11T11:31:23.989Z,48.25
2023-02-11T11:33:56.656Z,46.83
2023-02-11T11:36:33.057Z,51.53
2023-02-11T11:39:08.619Z,48.53
2023-02-11T11:41:36.998Z,47.70
2023-02-11T11:44:27.864Z,44.92
2023-02-11T11:47:18.535Z,56.53
2023-02-11T11:49:52.783Z,56.85
2023-02-11T11:52:34.685Z,49.75
2023-02-11T11:55:08.808Z,52.92
2023-02-11T11:57:39.949Z,54.60
2023-02-11T12:00:17.902Z,50.53
2023-02-11T12:03:15.094Z,49.17
2023-02-11T12:05:54.417Z,47.47
2023-02-11T12:08:33.224Z,45.58
2023-02-11T12:11:13.119Z,50.38
2023-02-11T12:13:50.098Z,45.28
2023-02-11T12:16:29.869Z,45.15
2023-02-11T12:19:28.244Z,46.20
2023-02-11T12:22:08.796Z,46.05
2023-02-11T12:24:57.586Z,44.28
2023-02-11T12:27:45.314Z,45.58
2023-02-11T12:30:30.034Z,46.05
2023-02-11T12:33:07.900Z,45.50
2023-02-11T12:35:45.196Z,44.53
2023-02-11T12:38:30.668Z,47.05
2023-02-11T12:41:16.266Z,46.60
2023-02-11T12:43:45.088Z,47.47
2023-02-11T12:46:38.191Z,53.58
2023-02-11T12:49:35.194Z,44.67
2023-02-11T12:52:13.701Z,44.83
2023-02-11T12:54:47.386Z,47.45
2023-02-11T12:57:22.313Z,46.42
2023-02-11T12:59:59.038Z,45.97
2023-02-11T13:02:41.781Z,43.22
2023-02-11T13:05:25.975Z,44.92
2023-02-11T13:07:56.976Z,41.90
2023-02-11T13:10:31.439Z,49.85
2023-02-11T13:13:18.478Z,43.72
2023-02-11T13:15:51.729Z,44.85
2023-02-11T13:18:33.589Z,47.78
2023-02-11T13:21:20.857Z,38.75
2023-02-11T13:23:56.706Z,41.95
2023-02-11T13:26:30.827Z,45.22
2023-02-11T13:29:14.657Z,45.20
2023-02-11T13:31:43.162Z,45.10
2023-02-11T13:34:25.864Z,52.50
2023-02-11T13:36:59.586Z,43.72
2023-02-11T13:39:28.063Z,44.95
2023-02-11T13:42:05.213Z,47.95
2023-02-11T13:44:35.827Z,52.13
2023-02-11T13:47:07.014Z,47.95
2023-02-11T13:49:40.787Z,48.97
2023-02-11T13:52:25.617Z,50.80
2023-02-11T13:54:56.201Z,47.80
2023-02-11T13:57:40.363Z,49.72
2023-02-11T14:00:47.308Z,51.28
2023-02-11T14:03:59.958Z,48.58
2023-02-11T14:06:47.358Z,45.60
2023-02-11T14:09:38.246Z,49.20
2023-02-11T14:12:32.830Z,51.80
2023-02-11T14:15:19.575Z,45.47
2023-02-11T14:17:52.423Z,44.13
2023-02-11T14:20:45.282Z,48.38
2023-02-11T14:23:27.205Z,48.72
2023-02-11T14:26:21.453Z,49.83
2023-02-11T14:28:53.112Z,51.50
2023-02-11T14:31:25.482Z,46.67
2023-02-11T14:34:25.252Z,46.35
2023-02-11T14:37:06.247Z,49.83
2023-02-11T14:39:49.526Z,53.78
2023-02-11T14:42:26.959Z,55.25
2023-02-11T14:45:00.041Z,61.85
2023-02-11T14:47:42.780Z,55.72
2023-02-11T14:50:26.685Z,58.83
2023-02-11T14:52:56.249Z,64.50
2023-02-11T14:55:31.536Z,52.75
2023-02-11T14:58:16.953Z,62.08
2023-02-11T15:00:51.933Z,66.60
2023-02-11T15:03:32.733Z,61.35
2023-02-11T15:06:03.817Z,59.28
2023-02-11T15:08:38.253Z,56.90
2023-02-11T15:11:13.244Z,58.22
2023-02-11T15:13:48.299Z,57.60
2023-02-11T15:16:22.702Z,56.15
2023-02-11T15:18:54.134Z,58.90
2023-02-11T15:21:24.391Z,53.95
2023-02-11T15:24:02.521Z,62.38
2023-02-11T15:26:32.037Z,60.38
2023-02-11T15:29:02.522Z,58.85
2023-02-11T15:31:34.924Z,50.22
2023-02-11T15:34:09.366Z,63.53
2023-02-11T15:36:39.754Z,58.47
2023-02-11T15:39:19.399Z,59.05
2023-02-11T15:41:47.881Z,60.95
2023-02-11T15:44:31.714Z,68.82
2023-02-11T15:47:00.609Z,70.50
2023-02-11T15:49:29.144Z,64.40
2023-02-11T15:51:59.264Z,63.50
2023-02-11T15:54:31.605Z,72.03
2023-02-11T15:57:09.596Z,66.35
2023-02-11T15:59:41.731Z,71.32
2023-02-11T16:02:17.367Z,62.10
2023-02-11T16:04:51.982Z,70.90
2023-02-11T16:07:45.187Z,64.97
2023-02-11T16:10:22.564Z,73.97
2023-02-11T16:12:56.350Z,68.97
2023-02-11T16:15:49.321Z,66.55
2023-02-11T16:18:37.890Z,67.55
2023-02-11T16:21:13.345Z,68.68
2023-02-11T16:23:43.376Z,74.90
2023-02-11T16:26:22.019Z,75.25
2023-02-11T16:28:50.821Z,78.35
2023-02-11T16:31:21.192Z,76.05
2023-02-11T16:33:49.700Z,80.45
2023-02-11T16:36:18.285Z,78.78
2023-02-11T16:38:46.493Z,84.32
2023-02-11T16:41:15.080Z,79.40
2023-02-11T16:43:43.295Z,81.95
2023-02-11T16:46:15.416Z,75.43
2023-02-11T16:48:46.727Z,80.07
2023-02-11T16:51:14.968Z,75.05
2023-02-11T16:53:43.120Z,80.97
2023-02-11T16:56:16.649Z,74.90
2023-02-11T16:58:46.340Z,88.18
2023-02-11T17:01:14.696Z,83.07
2023-02-11T17:03:45.596Z,84.65
2023-02-11T17:06:14.748Z,83.30
2023-02-11T17:08:43.201Z,85.30
2023-02-11T17:11:16.779Z,77.57
2023-02-11T17:13:45.752Z,78.10
2023-02-11T17:16:19.011Z,80.22
2023-02-11T17:18:49.599Z,77.55
2023-02-11T17:21:18.764Z,79.60
2023-02-11T17:23:47.517Z,74.95
2023-02-11T17:26:15.911Z,76.22
2023-02-11T17:28:44.674Z,84.03
2023-02-11T17:31:13.078Z,79.53
2023-02-11T17:33:41.448Z,66.40
2023-02-11T17:36:11.997Z,76.97
2023-02-11T17:38:40.184Z,75.63
2023-02-11T17:41:08.422Z,77.75
2023-02-11T17:43:36.691Z,64.13
2023-02-11T17:46:08.472Z,73.43
2023-02-11T17:48:38.589Z,63.67
2023-02-11T17:51:08.849Z,72.47
2023-02-11T17:53:38.561Z,65.15
2023-02-11T17:56:09.061Z,66.80
2023-02-11T17:58:37.947Z,76.45
2023-02-11T18:01:06.743Z,70.30
2023-02-11T18:03:35.917Z,77.75
2023-02-11T18:06:05.655Z,77.07
2023-02-11T18:08:34.549Z,70.90
2023-02-11T18:11:04.453Z,79.93
2023-02-11T18:13:32.713Z,78.65
2023-02-11T18:16:04.274Z,74.88
2023-02-11T18:18:32.966Z,74.03
2023-02-11T18:21:02.991Z,75.35
2023-02-11T18:23:31.638Z,78.60
2023-02-11T18:26:00.852Z,79.93
2023-02-11T18:28:30.602Z,75.78
2023-02-11T18:31:00.441Z,81.10
2023-02-11T18:33:31.222Z,70.30
2023-02-11T18:35:59.532Z,79.40
2023-02-11T18:38:30.237Z,79.55
2023-02-11T18:40:59.437Z,78.88
2023-02-11T18:43:31.715Z,77.78
2023-02-11T18:46:02.497Z,86.35
2023-02-11T18:48:31.018Z,76.15
2023-02-11T18:50:59.380Z,78.22
2023-02-11T18:53:27.958Z,72.03
2023-02-11T18:55:56.231Z,83.43
2023-02-11T18:58:24.946Z,74.00
2023-02-11T19:00:53.198Z,72.88
2023-02-11T19:03:24.609Z,72.35
2023-02-11T19:05:52.978Z,71.80
2023-02-11T19:08:21.634Z,74.68
2023-02-11T19:10:50.440Z,73.82
2023-02-11T19:13:18.862Z,74.63
2023-02-11T19:15:48.337Z,79.70
2023-02-11T19:18:18.454Z,71.07
2023-02-11T19:20:49.985Z,75.05
2023-02-11T19:23:18.506Z,75.18
2023-02-11T19:25:50.604Z,82.78
2023-02-11T19:28:19.114Z,82.32
2023-02-11T19:30:47.740Z,86.35
2023-02-11T19:33:16.189Z,82.80
2023-02-11T19:35:45.576Z,81.28
2023-02-11T19:38:20.306Z,76.45
2023-02-11T19:40:56.860Z,83.32
2023-02-11T19:43:26.840Z,69.72
2023-02-11T19:45:56.305Z,75.20
2023-02-11T19:48:25.440Z,75.35
2023-02-11T19:50:54.613Z,76.82
2023-02-11T19:53:26.919Z,74.72
2023-02-11T19:55:56.998Z,74.45
2023-02-11T19:58:25.482Z,78.15
2023-02-11T20:00:54.117Z,86.28
2023-02-11T20:03:23.610Z,77.20
2023-02-11T20:05:54.968Z,77.90
2023-02-11T20:08:25.535Z,78.82
2023-02-11T20:10:53.969Z,79.18
2023-02-11T20:13:23.340Z,80.15
2023-02-11T20:15:53.029Z,86.55
2023-02-11T20:18:21.908Z,80.15
2023-02-11T20:20:53.405Z,86.15
2023-02-11T20:23:24.201Z,81.20
2023-02-11T20:25:54.727Z,86.65
2023-02-11T20:28:23.420Z,72.95
2023-02-11T20:30:59.273Z,78.25
2023-02-11T20:33:29.827Z,73.68
2023-02-11T20:35:59.248Z,80.10
2023-02-11T20:38:28.044Z,79.20
2023-02-11T20:41:04.411Z,77.95
2023-02-11T20:43:32.845Z,82.22
2023-02-11T20:46:03.895Z,81.97
2023-02-11T20:48:33.408Z,77.53
2023-02-11T20:51:06.937Z,77.85
2023-02-11T20:53:35.837Z,85.95
2023-02-11T20:56:06.643Z,78.47
2023-02-11T20:58:35.918Z,85.20
2023-02-11T21:01:09.197Z,80.65
2023-02-11T21:03:39.160Z,75.95
2023-02-11T21:06:08.130Z,77.75
2023-02-11T21:08:36.628Z,80.57
2023-02-11T21:11:09.371Z,75.93
2023-02-11T21:13:38.522Z,73.07
2023-02-11T21:16:07.747Z,72.95
2023-02-11T21:18:36.679Z,74.00
2023-02-11T21:21:06.984Z,74.80
2023-02-11T21:23:35.816Z,70.63
2023-02-11T21:26:07.682Z,74.75
2023-02-11T21:28:39.119Z,78.97
2023-02-11T21:31:09.163Z,71.78
2023-02-11T21:33:37.928Z,74.65
2023-02-11T21:36:07.929Z,73.05
2023-02-11T21:38:38.487Z,68.88
2023-02-11T21:41:08.305Z,71.18
2023-02-11T21:43:36.784Z,78.35
2023-02-11T21:46:09.917Z,78.47
2023-02-11T21:48:39.729Z,69.88
2023-02-11T21:51:10.272Z,70.38
2023-02-11T21:53:39.842Z,65.82
2023-02-11T21:56:12.080Z,67.70
2023-02-11T21:58:40.896Z,69.07
2023-02-11T22:01:14.635Z,66.93
2023-02-11T22:03:42.899Z,67.65
2023-02-11T22:06:12.830Z,72.82
2023-02-11T22:08:42.070Z,65.50
2023-02-11T22:11:13.063Z,68.03
2023-02-11T22:13:44.164Z,64.40
2023-02-11T22:16:14.382Z,66.03
2023-02-11T22:18:44.570Z,67.85
2023-02-11T22:21:14.836Z,71.75
2023-02-11T22:23:43.276Z,71.18
2023-02-11T22:26:15.486Z,74.78
2023-02-11T22:28:44.166Z,76.35
2023-02-11T22:31:14.406Z,75.35
2023-02-11T22:33:42.887Z,73.05
2023-02-11T22:36:17.065Z,78.88
2023-02-11T22:38:45.618Z,77.70
2023-02-11T22:41:16.008Z,82.95
2023-02-11T22:43:47.018Z,78.80
2023-02-11T22:46:17.911Z,70.78
2023-02-11T22:48:46.950Z,74.00
2023-02-11T22:51:17.516Z,74.55
2023-02-11T22:53:45.945Z,69.40
2023-02-11T22:56:16.043Z,68.40
2023-02-11T22:58:46.557Z,69.00
2023-02-11T23:01:15.284Z,71.32
2023-02-11T23:03:43.921Z,67.85
2023-02-11T23:06:12.988Z,71.88
2023-02-11T23:08:42.983Z,65.47
2023-02-11T23:11:14.264Z,66.43
2023-02-11T23:13:46.208Z,71.07
2023-02-11T23:16:16.885Z,68.47
2023-02-11T23:18:47.305Z,69.03
2023-02-11T23:21:18.512Z,71.55
2023-02-11T23:23:46.935Z,70.03
2023-02-11T23:26:18.783Z,63.88
2023-02-11T23:28:50.149Z,71.78
2023-02-11T23:31:22.144Z,68.60
2023-02-11T23:33:51.321Z,70.45
2023-02-11T23:36:22.882Z,72.22
2023-02-11T23:38:51.445Z,73.65
2023-02-11T23:41:20.945Z,67.40
2023-02-11T23:43:52.720Z,68.88
2023-02-11T23:46:21.930Z,68.28
2023-02-11T23:48:50.829Z,70.90
2023-02-11T23:51:19.934Z,70.20
2023-02-11T23:53:49.424Z,66.97
2023-02-11T23:56:20.725Z,68.38
2023-02-11T23:58:49.800Z,62.95
